createdAt,value
2024-02-08T00:01:12.045Z,4.30
2024-02-08T00:06:15.649Z,6.73
2024-02-08T00:11:19.188Z,2.87
2024-02-08T00:16:24.184Z,5.00
2024-02-08T00:21:29.096Z,4.53
2024-02-08T00:26:32.934Z,4.40
2024-02-08T00:31:38.062Z,4.50
2024-02-08T00:36:41.391Z,2.77
2024-02-08T00:41:50.695Z,2.80
2024-02-08T00:46:59.434Z,3.13
2024-02-08T00:52:05.994Z,4.57
2024-02-08T00:57:17.033Z,2.97
2024-02-08T01:02:21.947Z,3.27
2024-02-08T01:07:25.626Z,3.37
2024-02-08T01:12:29.755Z,2.40
2024-02-08T01:17:36.461Z,2.93
2024-02-08T01:22:47.493Z,2.60
2024-02-08T01:27:56.612Z,2.87
2024-02-08T01:33:02.038Z,4.43
2024-02-08T01:38:19.607Z,3.53
2024-02-08T01:43:26.452Z,4.13
2024-02-08T01:48:34.144Z,3.87
2024-02-08T01:53:37.810Z,3.63
2024-02-08T01:58:43.427Z,6.07
2024-02-08T02:03:48.643Z,4.00
2024-02-08T02:08:59.398Z,3.73
2024-02-08T02:14:03.682Z,4.23
2024-02-08T02:19:10.344Z,5.00
2024-02-08T02:24:15.764Z,5.70
2024-02-08T02:29:22.487Z,3.73
2024-02-08T02:34:27.353Z,4.33
2024-02-08T02:39:33.751Z,4.47
2024-02-08T02:44:37.309Z,5.83
2024-02-08T02:49:40.821Z,4.80
2024-02-08T02:54:45.578Z,5.67
2024-02-08T02:59:48.828Z,5.00
2024-02-08T03:04:52.157Z,4.43
2024-02-08T03:09:56.919Z,5.17
2024-02-08T03:15:02.738Z,7.73
2024-02-08T03:20:07.681Z,6.37
2024-02-08T03:25:15.819Z,9.60
2024-02-08T03:30:21.708Z,5.17
2024-02-08T03:35:29.549Z,7.03
2024-02-08T03:40:34.841Z,6.03
2024-02-08T03:45:41.269Z,5.27
2024-02-08T03:50:44.574Z,5.63
2024-02-08T03:55:49.597Z,7.97
2024-02-08T04:00:55.662Z,5.93
2024-02-08T04:06:01.864Z,5.67
2024-02-08T04:11:24.024Z,7.10
2024-02-08T04:16:44.643Z,8.33
2024-02-08T04:22:05.311Z,9.23
2024-02-08T04:27:27.794Z,7.50
2024-02-08T04:32:47.401Z,12.67
2024-02-08T04:38:08.897Z,9.87
2024-02-08T04:43:31.105Z,13.37
2024-02-08T04:48:52.299Z,11.50
2024-02-08T04:53:59.589Z,13.90
2024-02-08T04:59:20.520Z,14.80
2024-02-08T05:04:26.644Z,14.20
2024-02-08T05:09:29.994Z,14.90
2024-02-08T05:14:36.519Z,15.57
2024-02-08T05:19:46.157Z,15.80
2024-02-08T05:24:49.714Z,14.33
2024-02-08T05:29:57.415Z,13.83
2024-02-08T05:35:03.380Z,19.13
2024-02-08T05:40:08.006Z,15.63
2024-02-08T05:45:29.854Z,14.30
2024-02-08T05:50:33.194Z,16.70
2024-02-08T05:55:36.933Z,12.37
2024-02-08T06:00:47.392Z,13.47
2024-02-08T06:05:51.006Z,13.77
2024-02-08T06:10:54.964Z,17.37
2024-02-08T06:16:09.814Z,15.60
2024-02-08T06:21:15.455Z,13.00
2024-02-08T06:26:30.172Z,16.83
2024-02-08T06:31:42.774Z,13.63
2024-02-08T06:37:00.334Z,13.13
2024-02-08T06:42:29.639Z,13.70
2024-02-08T06:47:48.145Z,14.80
2024-02-08T06:53:09.031Z,13.57
2024-02-08T06:58:30.001Z,13.73
2024-02-08T07:03:52.339Z,13.93
2024-02-08T07:09:13.395Z,18.57
2024-02-08T07:14:33.997Z,14.70
2024-02-08T07:19:55.821Z,14.13
2024-02-08T07:25:16.650Z,14.00
2024-02-08T07:30:37.472Z,14.83
2024-02-08T07:35:59.647Z,12.93
2024-02-08T07:41:02.872Z,13.50
2024-02-08T07:46:18.352Z,13.50
2024-02-08T07:51:27.483Z,10.43
2024-02-08T07:56:38.898Z,12.57
2024-02-08T08:01:45.713Z,9.63
2024-02-08T08:06:51.364Z,10.20
2024-02-08T08:11:55.860Z,9.57
2024-02-08T08:17:18.726Z,10.53
2024-02-08T08:22:38.069Z,11.63
2024-02-08T08:27:54.353Z,10.83
2024-02-08T08:33:08.797Z,10.77
2024-02-08T08:38:30.439Z,10.53
2024-02-08T08:43:35.817Z,9.03
2024-02-08T08:48:40.523Z,11.57
2024-02-08T08:53:46.265Z,9.90
2024-02-08T08:58:51.422Z,12.53
2024-02-08T09:04:10.862Z,9.07
2024-02-08T09:09:29.895Z,9.87
2024-02-08T09:14:33.985Z,7.33
2024-02-08T09:19:39.369Z,7.57
2024-02-08T09:24:46.290Z,8.57
2024-02-08T09:29:58.219Z,9.07
2024-02-08T09:35:01.889Z,9.40
2024-02-08T09:40:19.904Z,8.60
2024-02-08T09:45:46.546Z,6.23
2024-02-08T09:50:52.227Z,6.53
2024-02-08T09:56:01.068Z,8.07
2024-02-08T10:01:22.914Z,9.53
2024-02-08T10:06:40.433Z,6.83
2024-02-08T10:11:55.525Z,7.03
2024-02-08T10:17:02.947Z,6.53
2024-02-08T10:22:19.636Z,8.27
2024-02-08T10:27:24.942Z,14.80
2024-02-08T10:32:29.422Z,8.20
2024-02-08T10:37:47.161Z,8.20
2024-02-08T10:42:55.290Z,9.53
2024-02-08T10:48:00.906Z,7.60
2024-02-08T10:53:17.493Z,7.07
2024-02-08T10:58:28.939Z,6.77
2024-02-08T11:03:36.263Z,6.17
2024-02-08T11:08:51.912Z,7.63
2024-02-08T11:14:01.256Z,10.33
2024-02-08T11:19:06.388Z,6.60
2024-02-08T11:24:10.214Z,7.33
2024-02-08T11:29:20.222Z,9.60
2024-02-08T11:34:35.531Z,6.83
2024-02-08T11:39:41.592Z,9.50
2024-02-08T11:44:47.761Z,6.57
2024-02-08T11:50:02.735Z,6.87
2024-02-08T11:55:10.317Z,9.30
2024-02-08T12:00:20.009Z,9.00
2024-02-08T12:05:23.524Z,8.30
2024-02-08T12:10:26.961Z,9.40
2024-02-08T12:15:35.828Z,12.13
2024-02-08T12:20:39.399Z,9.80
2024-02-08T12:25:45.082Z,8.03
2024-02-08T12:30:52.376Z,12.07
2024-02-08T12:35:56.435Z,10.10
2024-02-08T12:41:03.914Z,11.60
2024-02-08T12:46:09.364Z,8.80
2024-02-08T12:51:15.695Z,9.47
2024-02-08T12:56:23.515Z,7.87
2024-02-08T13:01:38.317Z,7.53
2024-02-08T13:06:41.856Z,5.67
2024-02-08T13:11:46.125Z,5.97
2024-02-08T13:16:52.026Z,6.53
2024-02-08T13:21:57.394Z,6.63
2024-02-08T13:27:04.389Z,5.17
2024-02-08T13:32:09.439Z,5.87
2024-02-08T13:37:19.826Z,5.47
2024-02-08T13:42:31.935Z,5.27
2024-02-08T13:47:51.399Z,4.80
2024-02-08T13:52:55.190Z,8.47
2024-02-08T13:58:01.100Z,8.57
2024-02-08T14:03:09.789Z,7.73
2024-02-08T14:08:19.419Z,7.60
2024-02-08T14:13:37.349Z,7.70
2024-02-08T14:18:50.937Z,9.50
2024-02-08T14:24:02.181Z,6.13
2024-02-08T14:29:07.409Z,7.47
2024-02-08T14:34:14.031Z,7.90
2024-02-08T14:39:30.647Z,9.53
2024-02-08T14:44:42.433Z,9.33
2024-02-08T14:50:02.517Z,8.43
2024-02-08T14:55:22.667Z,8.70
2024-02-08T15:00:44.866Z,9.40
2024-02-08T15:05:50.662Z,9.57
2024-02-08T15:11:04.219Z,10.90
2024-02-08T15:16:14.766Z,10.43
2024-02-08T15:21:25.774Z,10.07
2024-02-08T15:26:38.671Z,9.17
2024-02-08T15:31:49.296Z,9.03
2024-02-08T15:37:15.266Z,14.17
2024-02-08T15:42:33.692Z,21.77
2024-02-08T15:47:39.126Z,15.90
2024-02-08T15:52:44.340Z,11.90
2024-02-08T15:57:56.198Z,9.90
2024-02-08T16:03:03.730Z,10.93
2024-02-08T16:08:09.095Z,9.70
2024-02-08T16:13:20.135Z,9.93
2024-02-08T16:18:27.178Z,8.83
2024-02-08T16:23:45.491Z,7.00
2024-02-08T16:28:51.483Z,9.63
2024-02-08T16:34:09.776Z,7.97
2024-02-08T16:39:34.839Z,9.37
2024-02-08T16:44:52.200Z,9.53
2024-02-08T16:50:00.673Z,7.23
2024-02-08T16:55:14.886Z,9.90
2024-02-08T17:00:49.334Z,8.87
2024-02-08T17:05:55.427Z,9.47
2024-02-08T17:11:03.212Z,10.43
2024-02-08T17:16:26.381Z,10.70
2024-02-08T17:21:46.430Z,8.37
2024-02-08T17:27:00.952Z,9.63
2024-02-08T17:32:14.225Z,9.37
2024-02-08T17:37:19.553Z,8.10
2024-02-08T17:42:24.737Z,9.30
2024-02-08T17:47:30.102Z,8.00
2024-02-08T17:52:36.137Z,8.17
2024-02-08T17:57:43.493Z,10.37
2024-02-08T18:02:51.493Z,9.30
2024-02-08T18:07:57.129Z,10.17
2024-02-08T18:13:02.988Z,7.63
2024-02-08T18:18:08.698Z,7.40
2024-02-08T18:23:20.473Z,7.83
2024-02-08T18:28:30.741Z,7.33
2024-02-08T18:33:39.313Z,8.93
2024-02-08T18:38:49.269Z,10.53
2024-02-08T18:43:54.476Z,9.20
2024-02-08T18:49:02.590Z,12.80
2024-02-08T18:54:13.040Z,11.80
2024-02-08T18:59:19.111Z,12.87
2024-02-08T19:04:22.639Z,10.23
2024-02-08T19:09:31.306Z,12.40
2024-02-08T19:14:36.108Z,14.43
2024-02-08T19:19:42.083Z,12.57
2024-02-08T19:24:47.385Z,13.47
2024-02-08T19:35:11.445Z,10.63
2024-02-08T19:40:22.028Z,12.23
2024-02-08T19:45:32.431Z,12.47
2024-02-08T19:50:43.934Z,10.70
2024-02-08T19:55:49.248Z,12.70
2024-02-08T20:00:54.071Z,10.03
2024-02-08T20:06:00.831Z,11.40
2024-02-08T20:11:13.126Z,9.73
2024-02-08T20:16:25.907Z,9.10
2024-02-08T20:21:34.087Z,8.20
2024-02-08T20:26:37.835Z,7.03
2024-02-08T20:31:49.990Z,6.97
2024-02-08T20:36:59.881Z,5.27
2024-02-08T20:42:06.437Z,5.67
2024-02-08T20:47:13.253Z,6.50
2024-02-08T20:52:19.507Z,7.03
2024-02-08T20:57:24.884Z,6.80
2024-02-08T21:02:29.635Z,6.37
2024-02-08T21:07:34.575Z,5.67
2024-02-08T21:12:39.715Z,6.10
2024-02-08T21:17:47.850Z,5.87
2024-02-08T21:22:53.824Z,5.63
2024-02-08T21:28:00.561Z,4.80
2024-02-08T21:33:06.752Z,5.07
2024-02-08T21:38:11.881Z,3.90
2024-02-08T21:43:16.957Z,4.17
2024-02-08T21:48:25.624Z,2.90
2024-02-08T21:53:31.057Z,4.07
2024-02-08T21:58:35.729Z,2.93
2024-02-08T22:03:39.327Z,3.80
2024-02-08T22:08:49.822Z,4.10
2024-02-08T22:13:57.985Z,3.80
2024-02-08T22:19:04.244Z,4.37
2024-02-08T22:24:12.516Z,3.83
2024-02-08T22:29:16.856Z,3.37
2024-02-08T22:34:25.119Z,3.20
2024-02-08T22:39:30.915Z,3.57
2024-02-08T22:44:35.190Z,3.90
2024-02-08T22:49:43.549Z,4.43
2024-02-08T22:54:52.457Z,3.83
2024-02-08T22:59:56.936Z,4.03
2024-02-08T23:05:00.698Z,3.53
2024-02-08T23:10:07.596Z,3.97
2024-02-08T23:15:21.246Z,4.13
2024-02-08T23:20:25.172Z,3.60
2024-02-08T23:25:30.121Z,4.43
2024-02-08T23:30:33.876Z,4.10
2024-02-08T23:35:38.820Z,4.70
2024-02-08T23:40:43.692Z,4.00
2024-02-08T23:45:47.188Z,5.07
2024-02-08T23:50:50.912Z,4.90
2024-02-08T23:55:57.174Z,5.67
